09 Apr 2020 05:11 UTC 2020100+05:11 UTC

Overview Datums Bench Marks Data Query Site Visit Daily QC Messages Attributes

079: SALT08

27° 52' 14" N   97° 31' 3" W
SALT08
City of Corpus Christi Salinity Monitoring Salinity

Station Information

SALT08
SALT08
more pictures
 
Station Name:SALT08
DNR ID:079
Location:27° 52' 14" N, 97° 31' 3" W

Water Level Forecasts

Latest Observations

Series Metric English Marine Observed at
Water Temperature 28.0 °C 82.4 °F 82.4 °F Apr 09 00:00 CDT
00h06m ago
Salinity 29.700 psu 29.700 psu 29.700 psu Apr 09 00:00 CDT
00h06m ago

Maps

SALT08
All Stations in Area
Entire Network
 

Recent Observations

Date/Time Water
Temp (°F)
Sal (psu)
Apr 09 00:00 CDT 82.4 29.700
Apr 08 23:00 CDT 83.3 29.400
Apr 08 22:00 CDT 83.8 29.200
Apr 08 21:00 CDT 84.0 28.700
Apr 08 20:00 CDT 83.7 28.600
Apr 08 19:00 CDT 83.7 28.600
Apr 08 18:00 CDT 84.2 28.500
Apr 08 17:00 CDT 83.8 28.200
Apr 08 16:00 CDT 80.6 27.800
Apr 08 15:00 CDT 79.2 28.400
Apr 08 14:00 CDT 78.6 28.400
Apr 08 13:00 CDT 78.1 23.000
Apr 08 12:00 CDT 77.0 27.400
Apr 08 11:00 CDT 76.5 27.500
Apr 08 10:00 CDT 76.5 27.400
Apr 08 09:00 CDT 76.5 28.300
Apr 08 08:00 CDT 76.6 28.200
Apr 08 07:00 CDT 77.0 27.700
Apr 08 06:00 CDT 77.4 27.500
Apr 08 05:00 CDT 77.9 27.200
Apr 08 04:00 CDT 77.9 27.200
Apr 08 03:00 CDT 77.9 27.200
Apr 08 02:00 CDT 78.1 27.200
Apr 08 01:00 CDT 78.1 27.000
Apr 08 00:00 CDT 78.1 26.900

Historical Data Availability